Time;durP1;ratioP1;P1;durP2;ratioP2;P2;SDS_P1;SDS_P2;PMS_P1;PMS_P2;Temp;Humidity;BMP_temperature;BMP_pressure;BME280_temperature;BME280_humidity;BME280_pressure;Samples;Min_cycle;Max_cycle;Signal;HPM_P1;HPM_P2
2021/09/21 00:00:29;;;;;;;19.10;14.20;;;;;;;11.90;71.82;102306.59;5061755;28;20185;-63
2021/09/21 00:02:54;;;;;;;15.70;14.20;;;;;;;11.63;72.87;102311.88;5064498;28;20162;-66
2021/09/21 00:05:20;;;;;;;15.17;13.63;;;;;;;11.74;72.62;102314.81;5062965;28;20165;-63
2021/09/21 00:07:46;;;;;;;22.87;19.17;;;;;;;11.84;71.91;102313.34;5065756;28;20424;-64
2021/09/21 00:10:12;;;;;;;16.13;14.20;;;;;;;11.58;72.77;102314.38;5065954;28;20166;-64
2021/09/21 00:12:37;;;;;;;20.00;17.40;;;;;;;11.58;72.72;102326.50;5044375;28;20494;-64
2021/09/21 00:15:03;;;;;;;21.03;15.80;;;;;;;11.68;72.21;102320.75;5062184;28;20419;-63
2021/09/21 00:17:28;;;;;;;17.10;15.30;;;;;;;11.68;72.64;102319.88;5061349;28;20594;-63
2021/09/21 00:19:54;;;;;;;19.90;16.23;;;;;;;11.55;73.47;102329.03;5061302;28;20525;-63
2021/09/21 00:22:19;;;;;;;16.83;15.03;;;;;;;11.44;73.31;102329.56;5061668;28;20220;-63
2021/09/21 00:24:44;;;;;;;16.73;15.03;;;;;;;11.26;73.69;102326.41;5061279;28;20161;-63
2021/09/21 00:27:10;;;;;;;15.97;14.30;;;;;;;11.31;74.00;102335.25;5066607;28;20280;-64
2021/09/21 00:29:35;;;;;;;20.73;15.20;;;;;;;11.34;73.48;102330.16;5068262;28;20936;-63
2021/09/21 00:32:01;;;;;;;17.37;15.57;;;;;;;11.23;73.82;102328.88;5068963;28;20548;-63
2021/09/21 00:34:42;;;;;;;18.67;16.33;;;;;;;11.21;74.38;102333.19;5061808;28;20252;-63
2021/09/21 00:37:12;;;;;;;19.40;16.23;;;;;;;11.25;73.76;102320.28;5061154;28;20173;-63
2021/09/21 00:39:39;;;;;;;19.70;16.70;;;;;;;11.55;73.22;102324.69;5060807;28;20416;-63
2021/09/21 00:42:05;;;;;;;17.97;15.97;;;;;;;11.67;72.72;102320.72;5060849;28;20442;-63
2021/09/21 00:44:30;;;;;;;36.23;28.20;;;;;;;11.64;72.80;102318.88;5060631;28;20412;-63
2021/09/21 00:46:56;;;;;;;36.00;30.57;;;;;;;11.52;73.30;102318.50;5061155;28;20404;-63
2021/09/21 00:49:21;;;;;;;17.20;15.37;;;;;;;11.40;73.69;102319.88;5060522;28;20530;-63
2021/09/21 00:51:46;;;;;;;29.83;23.23;;;;;;;11.56;73.77;102318.63;5060028;28;20626;-63
2021/09/21 00:54:11;;;;;;;23.17;20.03;;;;;;;11.49;74.11;102321.00;5060663;28;20527;-63
2021/09/21 00:56:38;;;;;;;19.00;16.57;;;;;;;11.57;74.06;102309.09;5060093;28;20225;-63
2021/09/21 00:59:03;;;;;;;16.53;13.73;;;;;;;11.75;73.77;102319.22;5059951;28;20176;-63
2021/09/21 01:01:29;;;;;;;16.77;14.97;;;;;;;11.70;73.09;102312.94;5042645;28;20379;-63
2021/09/21 01:03:54;;;;;;;18.40;16.40;;;;;;;11.65;73.37;102306.69;5060004;28;20170;-63
2021/09/21 01:06:20;;;;;;;17.17;15.47;;;;;;;12.02;72.36;102303.50;5059949;28;20192;-63
2021/09/21 01:08:45;;;;;;;14.97;13.47;;;;;;;12.04;72.22;102309.66;5060555;28;20479;-62
2021/09/21 01:11:12;;;;;;;18.00;15.00;;;;;;;11.63;73.02;102302.31;5059734;28;20173;-64
2021/09/21 01:13:37;;;;;;;16.90;14.57;;;;;;;11.99;72.31;102303.41;5059870;28;20201;-63
2021/09/21 01:16:03;;;;;;;16.10;12.83;;;;;;;12.33;71.16;102306.09;5060208;28;20427;-63
2021/09/21 01:18:28;;;;;;;16.40;14.80;;;;;;;12.13;71.69;102304.66;5059858;28;20300;-63
2021/09/21 01:21:04;;;;;;;17.90;14.90;;;;;;;12.43;70.41;102295.94;5042471;28;20642;-63
2021/09/21 01:23:31;;;;;;;14.77;13.27;;;;;;;12.37;70.53;102300.97;5059789;28;20161;-63
2021/09/21 01:25:56;;;;;;;14.40;13.00;;;;;;;12.39;70.39;102301.88;5059691;28;20412;-64
2021/09/21 01:28:21;;;;;;;14.67;13.10;;;;;;;12.12;70.59;102302.00;5060024;28;20407;-63
2021/09/21 01:30:47;;;;;;;14.97;13.43;;;;;;;12.42;70.19;102304.63;5059683;28;20542;-62
2021/09/21 01:33:12;;;;;;;14.07;12.57;;;;;;;12.46;69.58;102297.72;5059552;28;20197;-63
2021/09/21 01:35:38;;;;;;;15.47;13.20;;;;;;;12.18;70.61;102307.44;5060057;28;20178;-63
2021/09/21 01:38:03;;;;;;;15.30;12.87;;;;;;;12.33;70.24;102312.19;5059433;28;20201;-63
2021/09/21 01:40:28;;;;;;;18.10;14.60;;;;;;;12.16;70.69;102301.25;5054904;28;20194;-65
2021/09/21 01:42:54;;;;;;;14.03;12.63;;;;;;;12.15;70.36;102302.13;5059813;28;20169;-64
2021/09/21 01:45:20;;;;;;;13.33;11.93;;;;;;;12.31;69.74;102303.41;5059365;28;20256;-63
2021/09/21 01:47:47;;;;;;;14.03;12.40;;;;;;;12.63;68.75;102300.78;5059382;28;20212;-64
2021/09/21 02:00:57;;;;;;;14.00;11.60;;;;;;;12.42;68.85;102281.06;5059031;28;20442;-62
2021/09/21 02:03:22;;;;;;;11.83;10.63;;;;;;;12.45;67.43;102270.69;5058979;28;20416;-64
2021/09/21 02:05:47;;;;;;;12.70;11.30;;;;;;;12.52;67.98;102266.50;5058762;28;20455;-63
2021/09/21 02:08:13;;;;;;;13.27;10.73;;;;;;;12.66;67.49;102271.22;5059473;28;20211;-63
2021/09/21 02:10:38;;;;;;;12.20;11.00;;;;;;;12.54;68.21;102272.66;5058866;28;20170;-64
2021/09/21 02:13:04;;;;;;;13.00;11.70;;;;;;;12.36;68.80;102280.03;5058268;28;20205;-65
2021/09/21 02:15:31;;;;;;;12.50;10.53;;;;;;;12.61;68.21;102277.22;5041929;28;20161;-64
2021/09/21 02:18:00;;;;;;;12.07;10.23;;;;;;;12.60;68.36;102270.19;5058835;28;20170;-65
2021/09/21 02:20:27;;;;;;;14.10;10.97;;;;;;;12.73;67.82;102267.88;5058418;28;20413;-64
2021/09/21 02:22:52;;;;;;;11.90;10.70;;;;;;;12.32;68.46;102265.09;5058979;28;20752;-63
2021/09/21 02:25:17;;;;;;;11.77;10.57;;;;;;;12.66;67.77;102276.44;5058533;28;20477;-64
2021/09/21 02:27:43;;;;;;;12.67;11.37;;;;;;;12.55;68.32;102265.69;5058582;28;20253;-64
2021/09/21 02:30:08;;;;;;;12.73;11.20;;;;;;;12.54;68.98;102263.91;5058689;28;20174;-64
2021/09/21 02:32:34;;;;;;;11.87;10.57;;;;;;;12.58;68.66;102265.75;5058341;28;20197;-64
2021/09/21 02:34:59;;;;;;;11.93;10.73;;;;;;;12.59;69.05;102267.53;5058351;28;20196;-63
2021/09/21 02:37:25;;;;;;;13.00;11.80;;;;;;;12.52;69.36;102271.72;5059189;28;20215;-63
2021/09/21 02:39:50;;;;;;;11.30;10.20;;;;;;;12.50;69.58;102283.88;5040976;28;20180;-63
2021/09/21 02:42:15;;;;;;;13.50;12.03;;;;;;;12.65;69.25;102291.25;5058422;28;20169;-63
2021/09/21 02:44:40;;;;;;;10.93;9.83;;;;;;;12.87;68.38;102283.97;5058745;28;20443;-63
2021/09/21 02:47:06;;;;;;;12.13;10.90;;;;;;;12.52;69.88;102292.66;5058259;28;20192;-63
2021/09/21 02:49:32;;;;;;;11.33;9.90;;;;;;;12.53;69.56;102306.59;5058208;28;20169;-63
2021/09/21 02:51:57;;;;;;;18.30;14.50;;;;;;;12.34;70.05;102303.53;5057902;28;20222;-63
2021/09/21 02:54:23;;;;;;;12.60;11.13;;;;;;;12.47;69.75;102315.19;5058205;28;20776;-63
2021/09/21 02:56:48;;;;;;;60.23;44.17;;;;;;;12.41;70.26;102315.91;5058273;28;20248;-64
2021/09/21 02:59:13;;;;;;;11.70;10.27;;;;;;;12.53;70.15;102325.81;5058175;28;20433;-63
2021/09/21 03:01:39;;;;;;;12.63;11.33;;;;;;;12.39;69.84;102333.28;5057912;28;20181;-63
2021/09/21 03:04:11;;;;;;;22.90;17.50;;;;;;;12.63;69.34;102335.69;5058416;28;20168;-63
2021/09/21 03:06:41;;;;;;;13.13;11.63;;;;;;;12.61;69.81;102342.63;5058015;28;20169;-63
2021/09/21 03:09:16;;;;;;;11.60;10.50;;;;;;;12.65;70.02;102343.59;5058002;28;20444;-63
2021/09/21 03:11:47;;;;;;;11.50;10.00;;;;;;;12.64;70.28;102334.84;5057816;28;20382;-63
2021/09/21 03:19:24;;;;;;;11.90;10.70;;;;;;;12.44;70.32;102330.81;5058256;28;20184;-64
2021/09/21 03:21:50;;;;;;;11.77;10.67;;;;;;;12.59;69.77;102325.09;5057870;28;20676;-63
2021/09/21 03:24:15;;;;;;;11.77;10.40;;;;;;;12.66;70.10;102320.91;5058297;28;20405;-63
2021/09/21 03:26:41;;;;;;;11.73;10.70;;;;;;;12.69;69.86;102316.66;5062544;28;20391;-63
2021/09/21 03:29:06;;;;;;;11.10;10.00;;;;;;;12.63;69.83;102319.09;5061996;28;20445;-63
2021/09/21 03:31:31;;;;;;;11.97;10.50;;;;;;;12.57;69.27;102322.44;5061757;28;20429;-63
2021/09/21 03:33:57;;;;;;;11.73;10.60;;;;;;;12.48;69.87;102324.81;5045036;28;20185;-63
2021/09/21 03:36:22;;;;;;;11.07;9.97;;;;;;;12.50;69.64;102325.72;5061662;28;20185;-63
2021/09/21 03:38:47;;;;;;;13.80;11.73;;;;;;;12.52;69.90;102323.19;5061804;28;20184;-63
2021/09/21 03:41:13;;;;;;;10.97;9.97;;;;;;;12.69;69.62;102324.50;5060706;28;20173;-63
2021/09/21 03:43:38;;;;;;;11.60;10.40;;;;;;;12.60;69.38;102319.91;5061695;28;20227;-63
2021/09/21 03:46:03;;;;;;;13.33;11.97;;;;;;;12.76;69.01;102322.94;5061544;28;20173;-64
2021/09/21 03:48:29;;;;;;;11.60;10.40;;;;;;;12.71;69.29;102335.88;5061909;28;20209;-63
2021/09/21 03:50:54;;;;;;;11.03;9.97;;;;;;;12.77;68.63;102325.59;5061138;28;20264;-63
2021/09/21 03:53:19;;;;;;;10.53;9.53;;;;;;;12.92;67.87;102329.44;5061374;28;20233;-64
2021/09/21 03:55:45;;;;;;;10.60;9.50;;;;;;;12.87;67.81;102320.59;5061844;28;20194;-63
2021/09/21 03:58:10;;;;;;;11.23;10.10;;;;;;;12.80;68.04;102327.41;5061558;28;21078;-63
2021/09/21 04:00:35;;;;;;;11.17;10.07;;;;;;;12.69;68.47;102321.91;5061337;28;20177;-63
2021/09/21 04:03:01;;;;;;;10.87;9.87;;;;;;;12.65;69.20;102314.81;5061735;28;20486;-64
2021/09/21 04:05:26;;;;;;;13.50;10.50;;;;;;;12.86;67.59;102324.06;5061260;28;20173;-63
2021/09/21 04:07:51;;;;;;;11.20;10.20;;;;;;;13.11;67.66;102317.69;5043788;28;20174;-63
2021/09/21 04:10:17;;;;;;;13.70;11.30;;;;;;;13.27;67.05;102321.56;5061534;28;20270;-63
2021/09/21 04:12:43;;;;;;;11.00;9.73;;;;;;;13.05;67.89;102325.41;5061102;28;20229;-63
2021/09/21 04:15:10;;;;;;;11.40;10.40;;;;;;;13.02;68.26;102320.97;5061059;28;20663;-64
2021/09/21 04:17:35;;;;;;;11.17;10.13;;;;;;;12.86;68.01;102319.69;5061352;28;20546;-63
2021/09/21 04:20:00;;;;;;;11.90;10.50;;;;;;;12.96;68.24;102313.88;5061792;28;20769;-65
2021/09/21 04:22:27;;;;;;;12.17;10.93;;;;;;;12.97;68.31;102313.03;5061682;28;20303;-65
2021/09/21 04:24:53;;;;;;;14.90;11.43;;;;;;;13.12;68.06;102309.00;5062296;28;20173;-64
2021/09/21 04:27:19;;;;;;;13.23;11.73;;;;;;;13.03;67.89;102308.75;5061422;28;20416;-64
2021/09/21 04:29:44;;;;;;;13.00;11.50;;;;;;;12.98;67.98;102311.28;5043717;28;20398;-64
2021/09/21 04:32:09;;;;;;;12.80;11.40;;;;;;;13.10;67.57;102319.44;5061582;28;20194;-64
2021/09/21 04:34:35;;;;;;;12.33;11.20;;;;;;;13.19;68.63;102312.66;5043608;28;20181;-64
2021/09/21 04:37:01;;;;;;;12.60;11.40;;;;;;;13.13;69.44;102314.25;5059843;28;20215;-63
2021/09/21 04:39:26;;;;;;;11.73;10.57;;;;;;;13.17;69.79;102314.34;5061653;28;20396;-63
2021/09/21 04:41:52;;;;;;;12.17;10.97;;;;;;;13.31;69.40;102311.22;5043224;28;20165;-64
2021/09/21 04:44:17;;;;;;;13.67;12.00;;;;;;;13.51;68.96;102310.81;5060703;28;20472;-64
2021/09/21 04:46:43;;;;;;;14.37;12.80;;;;;;;13.18;69.81;102319.63;5060989;28;20244;-64
2021/09/21 04:49:08;;;;;;;13.80;12.50;;;;;;;13.40;69.93;102314.94;5060691;28;20177;-63
2021/09/21 04:51:34;;;;;;;15.90;13.37;;;;;;;13.37;69.56;102318.38;5060229;28;20217;-63
2021/09/21 04:54:00;;;;;;;14.70;13.20;;;;;;;13.24;70.46;102316.25;5060719;28;20196;-63
2021/09/21 04:56:25;;;;;;;15.27;13.77;;;;;;;13.39;69.73;102314.03;5060295;28;20185;-63
2021/09/21 04:58:50;;;;;;;13.90;11.97;;;;;;;13.41;69.91;102317.59;5060503;28;21483;-64
2021/09/21 05:01:16;;;;;;;13.60;12.30;;;;;;;13.14;70.66;102326.50;5060487;28;20170;-63
2021/09/21 05:03:41;;;;;;;13.20;11.80;;;;;;;13.42;70.38;102324.59;5060128;28;20228;-64
2021/09/21 05:06:06;;;;;;;14.37;12.87;;;;;;;13.39;70.08;102329.75;5060148;28;20170;-64
2021/09/21 05:08:32;;;;;;;15.43;13.57;;;;;;;13.22;70.88;102339.81;5060549;28;20177;-64
2021/09/21 05:10:57;;;;;;;18.20;13.73;;;;;;;13.56;68.73;102345.00;5059864;28;20170;-63
2021/09/21 05:13:22;;;;;;;14.77;13.17;;;;;;;13.34;69.59;102344.47;5060058;28;20221;-64
2021/09/21 05:15:49;;;;;;;12.43;11.17;;;;;;;13.00;70.26;102351.44;5060277;28;20522;-64
2021/09/21 05:18:14;;;;;;;14.00;12.13;;;;;;;13.42;69.02;102350.81;5059876;28;20177;-64
2021/09/21 05:20:39;;;;;;;13.93;12.30;;;;;;;13.46;67.83;102347.41;5059795;28;20424;-64
2021/09/21 05:23:05;;;;;;;14.27;12.87;;;;;;;13.39;68.20;102344.59;5060179;28;20172;-64
2021/09/21 05:25:30;;;;;;;12.23;10.93;;;;;;;13.25;68.84;102342.50;5059742;28;20174;-64
2021/09/21 05:27:55;;;;;;;14.73;11.30;;;;;;;13.39;68.25;102332.38;5059840;28;20169;-63
2021/09/21 05:30:21;;;;;;;13.70;12.13;;;;;;;13.46;67.83;102329.06;5042599;28;20208;-64
2021/09/21 05:32:46;;;;;;;13.87;12.17;;;;;;;13.57;67.69;102318.81;5059446;28;20233;-64
2021/09/21 05:35:12;;;;;;;16.93;12.60;;;;;;;13.39;67.61;102337.59;5059035;28;20209;-63
2021/09/21 05:37:38;;;;;;;12.50;11.27;;;;;;;13.39;67.39;102342.84;5059884;28;20170;-63
2021/09/21 05:40:05;;;;;;;15.97;11.10;;;;;;;13.35;67.14;102340.97;5059053;28;20780;-64
2021/09/21 05:42:30;;;;;;;12.70;10.70;;;;;;;13.30;67.37;102347.81;5058896;28;20231;-64
2021/09/21 05:44:56;;;;;;;13.00;11.70;;;;;;;13.06;68.68;102354.25;5060858;28;20760;-63
2021/09/21 05:47:21;;;;;;;14.47;11.70;;;;;;;13.38;67.85;102356.81;5060671;28;20427;-63
2021/09/21 05:49:46;;;;;;;14.67;11.53;;;;;;;13.26;66.94;102354.75;5059064;28;20558;-64
2021/09/21 05:52:12;;;;;;;12.23;10.53;;;;;;;13.22;66.91;102358.13;5058774;28;20231;-64
2021/09/21 05:54:37;;;;;;;12.73;10.43;;;;;;;13.29;67.51;102357.44;5059110;28;20268;-65
2021/09/21 05:57:03;;;;;;;12.83;11.50;;;;;;;13.18;67.39;102355.38;5041920;28;20273;-63
2021/09/21 05:59:28;;;;;;;12.27;10.67;;;;;;;13.09;67.26;102343.84;5057719;28;20181;-63
2021/09/21 06:01:53;;;;;;;11.97;10.17;;;;;;;13.22;66.49;102341.50;5058350;28;20201;-63
2021/09/21 06:04:18;;;;;;;13.90;11.00;;;;;;;13.29;65.98;102346.06;5058610;28;20173;-63
2021/09/21 06:06:44;;;;;;;14.97;11.60;;;;;;;13.44;65.69;102361.31;5058666;28;20219;-64
2021/09/21 06:09:09;;;;;;;12.23;11.03;;;;;;;13.24;66.88;102358.16;5058099;28;20188;-63
2021/09/21 06:11:35;;;;;;;11.63;10.43;;;;;;;13.23;66.55;102361.63;5058895;28;20256;-63
2021/09/21 06:14:01;;;;;;;11.90;10.57;;;;;;;13.23;65.94;102366.88;5040193;28;20216;-63
2021/09/21 06:16:27;;;;;;;12.07;10.87;;;;;;;13.06;66.63;102374.31;5042012;28;20538;-62
2021/09/21 06:18:53;;;;;;;12.60;10.90;;;;;;;13.26;65.33;102372.16;5055905;28;20816;-64
2021/09/21 06:21:18;;;;;;;14.47;10.80;;;;;;;12.89;65.96;102376.47;5057608;28;20447;-63
2021/09/21 06:23:44;;;;;;;11.50;10.33;;;;;;;13.44;65.60;102383.13;5042009;28;20228;-63
2021/09/21 06:26:09;;;;;;;11.70;10.50;;;;;;;13.43;64.14;102381.38;5040858;28;20180;-63
2021/09/21 06:28:34;;;;;;;13.20;11.60;;;;;;;13.41;63.76;102384.78;5055606;28;20464;-64
2021/09/21 06:31:00;;;;;;;11.77;10.57;;;;;;;13.77;63.07;102384.81;5056963;28;20224;-64
2021/09/21 06:33:25;;;;;;;11.13;10.00;;;;;;;13.92;61.81;102383.34;5058436;28;20228;-63
2021/09/21 06:35:51;;;;;;;11.40;10.30;;;;;;;13.95;62.24;102379.06;5040592;28;20181;-63
2021/09/21 06:38:17;;;;;;;10.90;10.00;;;;;;;14.01;61.53;102393.19;5058024;28;20501;-62
2021/09/21 06:40:42;;;;;;;14.57;11.70;;;;;;;14.12;61.87;102399.53;5041266;28;20174;-62
2021/09/21 06:43:07;;;;;;;11.43;10.03;;;;;;;14.04;61.92;102394.09;5040921;28;20749;-64
2021/09/21 06:45:33;;;;;;;10.70;9.70;;;;;;;13.77;62.13;102391.75;5040975;28;20519;-63
2021/09/21 06:47:58;;;;;;;9.87;8.93;;;;;;;14.10;61.69;102396.88;5059199;28;20262;-64
2021/09/21 06:50:24;;;;;;;10.53;9.53;;;;;;;14.11;61.25;102408.25;5057891;28;20225;-64
2021/09/21 06:52:49;;;;;;;10.47;9.47;;;;;;;14.05;61.52;102411.63;5057543;28;20209;-63
2021/09/21 06:55:15;;;;;;;10.00;9.00;;;;;;;13.90;62.78;102404.31;5056076;28;20250;-63
2021/09/21 06:57:41;;;;;;;10.70;9.70;;;;;;;14.10;61.90;102396.00;5056075;28;20189;-63
2021/09/21 07:00:09;;;;;;;10.57;9.50;;;;;;;13.69;63.71;102399.44;5057058;28;20391;-63
2021/09/21 07:02:35;;;;;;;10.23;9.27;;;;;;;14.18;62.60;102398.78;5059651;28;20188;-63
2021/09/21 07:05:00;;;;;;;9.87;8.97;;;;;;;13.71;63.21;102395.13;5058224;28;20390;-63
2021/09/21 07:07:26;;;;;;;12.13;10.30;;;;;;;13.68;62.87;102400.31;5057903;28;20184;-63
2021/09/21 07:09:51;;;;;;;11.60;9.77;;;;;;;14.25;62.54;102396.31;5057400;28;20184;-63
2021/09/21 07:12:16;;;;;;;11.20;10.03;;;;;;;14.04;62.81;102401.97;5057769;28;20255;-63
2021/09/21 07:14:42;;;;;;;10.80;9.70;;;;;;;13.76;63.28;102404.00;5044272;28;20209;-63
2021/09/21 07:17:07;;;;;;;11.37;10.27;;;;;;;13.74;64.15;102399.56;5058585;28;20561;-63
2021/09/21 07:19:33;;;;;;;11.90;10.80;;;;;;;13.79;64.49;102403.19;5058571;28;20181;-63
2021/09/21 07:21:58;;;;;;;12.20;10.70;;;;;;;13.76;64.85;102398.75;5057975;28;20480;-63
2021/09/21 07:24:24;;;;;;;13.87;10.23;;;;;;;14.12;64.82;102400.41;5024123;28;20177;-63
2021/09/21 07:26:50;;;;;;;10.53;9.40;;;;;;;13.89;63.64;102409.50;5057738;28;20177;-63
2021/09/21 07:29:17;;;;;;;11.70;10.60;;;;;;;13.86;64.11;102415.56;5040364;28;20170;-63
2021/09/21 07:31:42;;;;;;;13.23;10.97;;;;;;;13.80;63.56;102410.16;5057347;28;20420;-63
2021/09/21 07:34:08;;;;;;;11.80;10.17;;;;;;;14.02;63.61;102410.66;5057486;28;20559;-63
2021/09/21 07:36:34;;;;;;;13.10;10.80;;;;;;;14.04;63.73;102416.84;5057613;28;20173;-62
2021/09/21 07:38:59;;;;;;;12.40;10.90;;;;;;;13.91;64.00;102416.56;5057467;28;20394;-63
2021/09/21 07:41:25;;;;;;;11.97;9.33;;;;;;;13.91;65.20;102426.16;5040181;28;20170;-63
2021/09/21 07:43:50;;;;;;;11.63;10.53;;;;;;;14.05;64.19;102432.59;5057180;28;20428;-62
2021/09/21 07:46:16;;;;;;;12.13;9.90;;;;;;;14.07;64.37;102430.91;5057743;28;20180;-63
2021/09/21 07:48:42;;;;;;;10.70;9.60;;;;;;;14.01;63.78;102427.28;5057578;28;20203;-64
2021/09/21 07:51:08;;;;;;;11.73;9.70;;;;;;;14.05;63.72;102416.88;5056653;28;20463;-63
2021/09/21 07:53:34;;;;;;;19.70;10.60;;;;;;;13.94;63.43;102428.88;5057773;28;20279;-64
2021/09/21 07:55:59;;;;;;;11.10;10.00;;;;;;;14.32;63.36;102423.56;5057017;28;20439;-64
2021/09/21 07:58:25;;;;;;;11.57;10.30;;;;;;;14.23;63.36;102424.25;5040201;28;20397;-64
2021/09/21 08:00:54;;;;;;;12.63;11.43;;;;;;;14.48;62.85;102425.66;5057264;28;20167;-64
2021/09/21 08:03:19;;;;;;;13.63;11.10;;;;;;;14.56;63.75;102427.53;5053297;28;20177;-64
2021/09/21 08:05:44;;;;;;;12.40;11.27;;;;;;;14.48;63.02;102420.41;5056933;28;20424;-64
2021/09/21 08:08:10;;;;;;;13.70;11.83;;;;;;;14.47;63.50;102429.13;5057191;28;20180;-63
2021/09/21 08:10:36;;;;;;;13.60;12.20;;;;;;;14.47;62.96;102433.50;5054071;28;20169;-64
2021/09/21 08:13:01;;;;;;;14.10;12.60;;;;;;;14.45;62.54;102429.94;5058616;28;20210;-64
2021/09/21 08:15:30;;;;;;;15.00;11.70;;;;;;;14.31;63.16;102432.28;5060048;28;20406;-64
2021/09/21 08:17:56;;;;;;;14.00;12.70;;;;;;;14.57;63.15;102440.72;5059902;28;20184;-63
2021/09/21 08:20:22;;;;;;;15.37;12.97;;;;;;;14.59;62.22;102438.13;5059567;28;20415;-64
2021/09/21 08:22:47;;;;;;;16.00;14.30;;;;;;;15.03;60.60;102435.47;5046102;28;20576;-63
2021/09/21 08:25:12;;;;;;;15.37;13.10;;;;;;;15.27;59.27;102428.91;5060214;28;20231;-63
2021/09/21 08:27:38;;;;;;;14.63;13.10;;;;;;;14.79;61.66;102421.06;5060462;28;20173;-63
2021/09/21 08:30:05;;;;;;;14.57;13.17;;;;;;;14.59;61.75;102428.50;5060328;28;20220;-63
2021/09/21 08:32:32;;;;;;;18.30;15.67;;;;;;;14.80;61.22;102414.94;5060000;28;20244;-63
2021/09/21 08:34:58;;;;;;;14.00;12.40;;;;;;;14.68;60.88;102412.09;5060322;28;20811;-65
2021/09/21 08:37:23;;;;;;;16.50;14.40;;;;;;;14.87;60.50;102410.69;5060639;28;20404;-65
2021/09/21 08:39:48;;;;;;;12.83;10.80;;;;;;;14.67;60.55;102420.81;5059898;28;20192;-64
2021/09/21 08:42:14;;;;;;;13.87;11.23;;;;;;;14.77;60.11;102421.88;5060275;28;20435;-65
2021/09/21 08:44:40;;;;;;;11.57;10.47;;;;;;;14.85;60.18;102415.03;5043136;28;20184;-65
2021/09/21 08:47:05;;;;;;;12.93;11.60;;;;;;;14.82;60.21;102415.84;5046179;28;20170;-64
2021/09/21 08:49:31;;;;;;;13.63;10.87;;;;;;;15.05;59.59;102412.78;5063563;28;20408;-64
2021/09/21 08:51:56;;;;;;;10.77;9.63;;;;;;;14.91;60.18;102419.50;5060432;28;20216;-63
2021/09/21 08:54:22;;;;;;;10.73;9.60;;;;;;;14.86;60.35;102413.31;5059953;28;20604;-64
2021/09/21 08:56:48;;;;;;;13.00;11.70;;;;;;;14.49;61.27;102418.66;5059953;28;20182;-64
2021/09/21 08:59:15;;;;;;;12.73;10.60;;;;;;;14.72;59.98;102403.41;5060175;28;20170;-64
2021/09/21 09:01:42;;;;;;;12.57;11.23;;;;;;;14.84;60.14;102415.00;5060135;28;20476;-64
2021/09/21 09:04:09;;;;;;;10.30;9.37;;;;;;;14.57;60.78;102400.44;5060458;28;20812;-64
2021/09/21 09:06:53;;;;;;;11.70;10.60;;;;;;;14.80;59.46;102399.19;5059935;28;20394;-63
2021/09/21 09:09:21;;;;;;;10.10;9.10;;;;;;;15.01;59.44;102400.44;5059849;28;20413;-64
2021/09/21 09:11:55;;;;;;;9.40;8.50;;;;;;;14.70;60.32;102405.13;5059622;28;20544;-64
2021/09/21 09:14:25;;;;;;;10.43;9.30;;;;;;;14.99;59.62;102407.38;5059484;28;20776;-64
2021/09/21 09:16:55;;;;;;;10.43;8.60;;;;;;;14.77;61.86;102401.75;5058895;28;20426;-64
2021/09/21 09:19:21;;;;;;;9.30;8.50;;;;;;;14.31;61.76;102403.44;5058950;28;20433;-64
2021/09/21 09:21:49;;;;;;;10.17;9.17;;;;;;;14.35;62.20;102412.25;5059521;28;20767;-63
2021/09/21 09:24:15;;;;;;;10.70;9.00;;;;;;;14.60;61.71;102416.25;5058963;28;20252;-64
2021/09/21 09:26:43;;;;;;;12.07;9.40;;;;;;;14.53;62.33;102412.66;5059650;28;20408;-63
2021/09/21 09:29:10;;;;;;;10.37;9.37;;;;;;;14.49;61.94;102411.69;5059522;28;20473;-63
2021/09/21 09:31:37;;;;;;;11.30;9.50;;;;;;;14.73;62.26;102402.53;5059055;28;20478;-63
2021/09/21 09:34:14;;;;;;;10.83;9.60;;;;;;;14.90;61.08;102407.25;5059257;28;20529;-64
2021/09/21 09:36:47;;;;;;;13.40;10.57;;;;;;;14.86;61.69;102401.03;5056790;28;20427;-66
2021/09/21 09:39:14;;;;;;;9.00;8.10;;;;;;;14.98;61.61;102405.66;5055176;28;20448;-66
2021/09/21 09:41:41;;;;;;;9.33;8.43;;;;;;;15.14;61.20;102402.44;5058515;28;20387;-65
2021/09/21 09:44:11;;;;;;;10.20;9.23;;;;;;;15.40;59.88;102398.47;5058652;28;20816;-64
2021/09/21 09:46:52;;;;;;;10.37;8.50;;;;;;;15.66;58.26;102401.50;5039190;28;20447;-64
2021/09/21 09:49:29;;;;;;;9.67;8.77;;;;;;;14.98;60.02;102393.38;5039046;28;20383;-64
2021/09/21 09:52:02;;;;;;;8.70;7.90;;;;;;;15.54;59.16;102390.81;5038773;28;20510;-64
2021/09/21 09:54:27;;;;;;;11.47;8.30;;;;;;;15.88;58.63;102392.22;5052997;28;20432;-64
2021/09/21 09:56:53;;;;;;;9.00;8.10;;;;;;;16.06;57.62;102391.59;5058473;28;20427;-65
2021/09/21 09:59:19;;;;;;;9.23;8.30;;;;;;;15.89;58.37;102387.84;5041528;28;20205;-64
2021/09/21 10:01:45;;;;;;;9.50;8.60;;;;;;;16.32;57.29;102385.78;5057892;28;20527;-64
2021/09/21 10:04:12;;;;;;;12.90;8.20;;;;;;;16.29;57.62;102388.34;5058319;28;20184;-64
2021/09/21 10:06:38;;;;;;;10.80;8.00;;;;;;;16.62;56.62;102392.28;5058220;28;20185;-68
2021/09/21 10:09:03;;;;;;;9.33;8.43;;;;;;;16.05;58.26;102392.44;5058237;28;20420;-66
2021/09/21 10:11:29;;;;;;;10.27;9.17;;;;;;;16.36;57.06;102390.22;5058249;28;20495;-66
2021/09/21 10:14:01;;;;;;;9.47;8.47;;;;;;;16.45;56.90;102385.06;5041487;28;20198;-67
2021/09/21 10:16:27;;;;;;;9.37;7.90;;;;;;;16.61;56.03;102382.59;5058788;28;20183;-67
2021/09/21 10:18:57;;;;;;;8.47;7.60;;;;;;;16.87;55.96;102389.88;5057710;28;20386;-66
2021/09/21 10:21:35;;;;;;;9.20;8.30;;;;;;;17.05;54.92;102392.72;5058139;28;20531;-66
2021/09/21 10:24:07;;;;;;;9.97;8.37;;;;;;;16.86;55.00;102370.56;5057317;28;20430;-66
2021/09/21 10:26:39;;;;;;;11.00;7.90;;;;;;;17.99;53.15;102371.44;5056191;28;20650;-68
2021/09/21 10:29:04;;;;;;;8.70;7.87;;;;;;;17.44;53.32;102372.84;5055074;28;20470;-68
2021/09/21 10:31:30;;;;;;;7.87;7.17;;;;;;;17.43;54.05;102378.97;5057847;28;20412;-67
2021/09/21 10:33:56;;;;;;;8.63;7.67;;;;;;;17.54;53.98;102378.19;5056773;28;20266;-68
2021/09/21 10:36:24;;;;;;;8.60;7.50;;;;;;;17.38;54.46;102374.56;5057559;28;20453;-67
2021/09/21 10:39:07;;;;;;;11.00;7.83;;;;;;;17.31;54.33;102373.63;5058043;28;20177;-67
2021/09/21 10:41:32;;;;;;;8.23;7.40;;;;;;;17.33;54.40;102371.88;5057118;28;20428;-67
2021/09/21 10:44:04;;;;;;;8.07;7.37;;;;;;;17.66;54.31;102370.34;5057402;28;20416;-68
2021/09/21 10:46:30;;;;;;;8.07;7.37;;;;;;;16.91;55.29;102378.53;5037719;28;20228;-68
2021/09/21 10:49:00;;;;;;;8.00;7.30;;;;;;;17.35;55.00;102383.31;5057469;28;20463;-67
2021/09/21 10:51:25;;;;;;;7.63;6.93;;;;;;;17.30;55.69;102378.00;5057343;28;20232;-67
2021/09/21 10:54:04;;;;;;;9.60;7.63;;;;;;;17.46;54.31;102378.13;5039909;28;20509;-67
2021/09/21 10:56:31;;;;;;;9.97;7.73;;;;;;;17.07;55.17;102377.81;5057125;28;20193;-67
2021/09/21 10:58:58;;;;;;;8.13;7.20;;;;;;;17.12;55.45;102381.38;5056981;28;20579;-65
2021/09/21 11:01:24;;;;;;;8.20;7.37;;;;;;;17.30;54.58;102362.19;5057285;28;20426;-66
2021/09/21 11:03:49;;;;;;;12.53;7.40;;;;;;;16.73;56.65;102379.22;5057410;28;20442;-66
2021/09/21 11:06:15;;;;;;;7.50;6.80;;;;;;;16.93;56.01;102363.66;5057330;28;20538;-65
2021/09/21 11:08:41;;;;;;;8.23;6.87;;;;;;;17.28;55.72;102368.34;5057907;28;20542;-66
2021/09/21 11:11:08;;;;;;;8.73;7.83;;;;;;;17.19;55.86;102360.34;5040285;28;20499;-66
2021/09/21 11:13:42;;;;;;;8.70;7.90;;;;;;;16.86;56.80;102354.75;5057716;28;20470;-66
2021/09/21 11:16:12;;;;;;;9.10;8.00;;;;;;;17.12;56.33;102357.66;5057631;28;20793;-66
2021/09/21 11:18:40;;;;;;;8.50;7.70;;;;;;;17.33;56.20;102364.88;5057980;28;20808;-66
2021/09/21 11:21:07;;;;;;;8.13;7.33;;;;;;;17.17;57.13;102352.44;5057518;28;20448;-65
2021/09/21 11:23:43;;;;;;;8.47;7.50;;;;;;;16.69;57.84;102356.34;5057305;28;20760;-66